sensor_id;sensor_type;location;lat;lon;timestamp;pressure;altitude;pressure_sealevel;temperature;humidity
80781;BME280;70341;56.408;10.874;2023-06-26T00:00:12;101631.24;;;18.58;64.50
80781;BME280;70341;56.408;10.874;2023-06-26T00:03:02;101632.19;;;18.55;64.99
80781;BME280;70341;56.408;10.874;2023-06-26T00:05:31;101622.73;;;18.56;65.21
80781;BME280;70341;56.408;10.874;2023-06-26T00:08:00;101621.52;;;18.58;65.38
80781;BME280;70341;56.408;10.874;2023-06-26T00:10:29;101617.09;;;18.61;65.67
80781;BME280;70341;56.408;10.874;2023-06-26T00:12:59;101615.20;;;18.62;65.98
80781;BME280;70341;56.408;10.874;2023-06-26T00:15:28;101615.63;;;18.65;66.23
80781;BME280;70341;56.408;10.874;2023-06-26T00:18:00;101610.61;;;18.67;66.36
80781;BME280;70341;56.408;10.874;2023-06-26T00:20:29;101606.27;;;18.70;66.34
80781;BME280;70341;56.408;10.874;2023-06-26T00:22:58;101606.83;;;18.73;66.32
80781;BME280;70341;56.408;10.874;2023-06-26T00:25:27;101606.33;;;18.76;66.30
80781;BME280;70341;56.408;10.874;2023-06-26T00:27:57;101604.23;;;18.77;66.05
80781;BME280;70341;56.408;10.874;2023-06-26T00:30:25;101596.13;;;18.77;65.80
80781;BME280;70341;56.408;10.874;2023-06-26T00:32:56;101595.91;;;18.78;66.01
80781;BME280;70341;56.408;10.874;2023-06-26T00:35:24;101592.25;;;18.79;66.30
80781;BME280;70341;56.408;10.874;2023-06-26T00:37:55;101588.55;;;18.80;67.73
80781;BME280;70341;56.408;10.874;2023-06-26T00:40:23;101581.97;;;18.85;70.21
80781;BME280;70341;56.408;10.874;2023-06-26T00:42:53;101582.98;;;18.92;71.55
80781;BME280;70341;56.408;10.874;2023-06-26T00:45:21;101582.17;;;19.02;71.90
80781;BME280;70341;56.408;10.874;2023-06-26T00:48:06;101582.11;;;19.12;72.52
80781;BME280;70341;56.408;10.874;2023-06-26T00:50:34;101585.60;;;19.22;72.66
80781;BME280;70341;56.408;10.874;2023-06-26T00:53:04;101585.42;;;19.31;73.32
80781;BME280;70341;56.408;10.874;2023-06-26T00:55:33;101583.88;;;19.41;73.57
80781;BME280;70341;56.408;10.874;2023-06-26T00:58:02;101583.78;;;19.48;73.43
80781;BME280;70341;56.408;10.874;2023-06-26T01:00:31;101579.75;;;19.55;73.70
80781;BME280;70341;56.408;10.874;2023-06-26T01:03:01;101581.61;;;19.60;74.33
80781;BME280;70341;56.408;10.874;2023-06-26T01:05:30;101581.59;;;19.63;74.15
80781;BME280;70341;56.408;10.874;2023-06-26T01:08:00;101580.48;;;19.66;74.22
80781;BME280;70341;56.408;10.874;2023-06-26T01:10:29;101578.00;;;19.71;74.42
80781;BME280;70341;56.408;10.874;2023-06-26T01:13:00;101576.17;;;19.74;74.35
80781;BME280;70341;56.408;10.874;2023-06-26T01:15:28;101576.14;;;19.78;74.30
80781;BME280;70341;56.408;10.874;2023-06-26T01:17:58;101571.91;;;19.79;74.53
80781;BME280;70341;56.408;10.874;2023-06-26T01:20:28;101572.98;;;19.79;74.79
80781;BME280;70341;56.408;10.874;2023-06-26T01:23:12;101574.02;;;19.80;75.09
80781;BME280;70341;56.408;10.874;2023-06-26T01:26:17;101571.57;;;19.82;75.32
80781;BME280;70341;56.408;10.874;2023-06-26T01:28:53;101572.88;;;19.81;75.72
80781;BME280;70341;56.408;10.874;2023-06-26T01:31:24;101570.94;;;19.80;75.93
80781;BME280;70341;56.408;10.874;2023-06-26T01:33:52;101565.50;;;19.80;75.99
80781;BME280;70341;56.408;10.874;2023-06-26T01:36:23;101562.73;;;19.81;75.76
80781;BME280;70341;56.408;10.874;2023-06-26T01:38:51;101562.79;;;19.83;75.81
80781;BME280;70341;56.408;10.874;2023-06-26T01:41:22;101559.72;;;19.86;75.84
80781;BME280;70341;56.408;10.874;2023-06-26T01:47:04;101548.34;;;19.86;76.11
80781;BME280;70341;56.408;10.874;2023-06-26T01:49:44;101543.98;;;19.86;76.20
80781;BME280;70341;56.408;10.874;2023-06-26T01:52:40;101544.38;;;19.88;76.05
80781;BME280;70341;56.408;10.874;2023-06-26T01:55:47;101541.27;;;19.89;76.60
80781;BME280;70341;56.408;10.874;2023-06-26T01:58:23;101537.21;;;19.88;76.46
80781;BME280;70341;56.408;10.874;2023-06-26T02:00:53;101536.17;;;19.87;76.57
80781;BME280;70341;56.408;10.874;2023-06-26T02:03:22;101531.22;;;19.88;76.30
80781;BME280;70341;56.408;10.874;2023-06-26T02:05:51;101527.48;;;19.90;76.31
80781;BME280;70341;56.408;10.874;2023-06-26T02:08:21;101522.02;;;19.91;76.25
80781;BME280;70341;56.408;10.874;2023-06-26T02:10:49;101519.10;;;19.92;76.86
80781;BME280;70341;56.408;10.874;2023-06-26T02:13:19;101519.52;;;19.91;76.58
80781;BME280;70341;56.408;10.874;2023-06-26T02:15:48;101512.67;;;19.91;77.11
80781;BME280;70341;56.408;10.874;2023-06-26T02:18:18;101506.21;;;19.90;77.48
80781;BME280;70341;56.408;10.874;2023-06-26T02:20:46;101503.70;;;19.90;77.06
80781;BME280;70341;56.408;10.874;2023-06-26T02:23:16;101500.16;;;19.92;77.00
80781;BME280;70341;56.408;10.874;2023-06-26T02:25:45;101498.83;;;19.93;77.24
80781;BME280;70341;56.408;10.874;2023-06-26T02:28:15;101496.27;;;19.93;77.37
80781;BME280;70341;56.408;10.874;2023-06-26T02:30:43;101490.19;;;19.93;77.38
80781;BME280;70341;56.408;10.874;2023-06-26T02:33:13;101485.49;;;19.93;77.44
80781;BME280;70341;56.408;10.874;2023-06-26T02:35:42;101484.59;;;19.95;77.24
80781;BME280;70341;56.408;10.874;2023-06-26T02:38:12;101482.16;;;19.99;77.18
80781;BME280;70341;56.408;10.874;2023-06-26T02:40:40;101482.95;;;20.03;77.25
80781;BME280;70341;56.408;10.874;2023-06-26T02:43:10;101481.39;;;20.05;77.11
80781;BME280;70341;56.408;10.874;2023-06-26T02:45:38;101477.75;;;20.06;77.15
80781;BME280;70341;56.408;10.874;2023-06-26T02:48:08;101475.56;;;20.06;77.03
80781;BME280;70341;56.408;10.874;2023-06-26T02:50:37;101473.67;;;20.07;76.98
80781;BME280;70341;56.408;10.874;2023-06-26T02:53:07;101474.45;;;20.09;76.76
80781;BME280;70341;56.408;10.874;2023-06-26T02:55:35;101469.27;;;20.11;76.48
80781;BME280;70341;56.408;10.874;2023-06-26T02:58:05;101464.14;;;20.12;76.28
80781;BME280;70341;56.408;10.874;2023-06-26T03:00:34;101463.67;;;20.14;76.22
80781;BME280;70341;56.408;10.874;2023-06-26T03:03:03;101463.21;;;20.15;76.27
80781;BME280;70341;56.408;10.874;2023-06-26T03:05:32;101461.93;;;20.18;76.06
80781;BME280;70341;56.408;10.874;2023-06-26T03:08:03;101458.76;;;20.19;75.88
80781;BME280;70341;56.408;10.874;2023-06-26T03:10:31;101457.73;;;20.21;75.90
80781;BME280;70341;56.408;10.874;2023-06-26T03:13:02;101455.50;;;20.22;76.04
80781;BME280;70341;56.408;10.874;2023-06-26T03:15:30;101453.55;;;20.24;75.87
80781;BME280;70341;56.408;10.874;2023-06-26T03:18:01;101450.34;;;20.28;75.48
80781;BME280;70341;56.408;10.874;2023-06-26T03:20:29;101445.00;;;20.33;75.39
80781;BME280;70341;56.408;10.874;2023-06-26T03:22:59;101451.65;;;20.36;75.27
80781;BME280;70341;56.408;10.874;2023-06-26T03:25:28;101448.17;;;20.39;75.38
80781;BME280;70341;56.408;10.874;2023-06-26T03:27:58;101446.48;;;20.40;75.31
80781;BME280;70341;56.408;10.874;2023-06-26T03:30:27;101441.05;;;20.43;75.16
80781;BME280;70341;56.408;10.874;2023-06-26T03:32:56;101441.74;;;20.46;75.04
80781;BME280;70341;56.408;10.874;2023-06-26T03:35:24;101440.44;;;20.52;74.79
80781;BME280;70341;56.408;10.874;2023-06-26T03:37:55;101441.73;;;20.56;74.75
80781;BME280;70341;56.408;10.874;2023-06-26T03:40:24;101434.30;;;20.60;74.52
80781;BME280;70341;56.408;10.874;2023-06-26T03:42:54;101430.55;;;20.64;74.32
80781;BME280;70341;56.408;10.874;2023-06-26T03:45:22;101433.65;;;20.69;74.04
80781;BME280;70341;56.408;10.874;2023-06-26T03:47:52;101430.68;;;20.75;73.87
80781;BME280;70341;56.408;10.874;2023-06-26T03:50:20;101428.84;;;20.83;73.61
80781;BME280;70341;56.408;10.874;2023-06-26T03:52:50;101429.33;;;20.89;73.34
80781;BME280;70341;56.408;10.874;2023-06-26T03:55:18;101427.89;;;20.94;73.13
80781;BME280;70341;56.408;10.874;2023-06-26T03:57:48;101426.48;;;20.98;73.03
80781;BME280;70341;56.408;10.874;2023-06-26T04:00:17;101422.73;;;21.05;72.88
80781;BME280;70341;56.408;10.874;2023-06-26T04:02:46;101416.77;;;21.12;72.61
80781;BME280;70341;56.408;10.874;2023-06-26T04:05:15;101411.44;;;21.20;72.38
80781;BME280;70341;56.408;10.874;2023-06-26T04:07:45;101406.48;;;21.27;72.29
80781;BME280;70341;56.408;10.874;2023-06-26T04:10:13;101398.90;;;21.34;72.01
80781;BME280;70341;56.408;10.874;2023-06-26T04:12:43;101397.96;;;21.37;72.04
80781;BME280;70341;56.408;10.874;2023-06-26T04:15:11;101401.22;;;21.39;71.77
80781;BME280;70341;56.408;10.874;2023-06-26T04:17:41;101396.79;;;21.43;71.57
80781;BME280;70341;56.408;10.874;2023-06-26T04:20:10;101393.58;;;21.47;71.22
80781;BME280;70341;56.408;10.874;2023-06-26T04:22:40;101388.61;;;21.51;70.84
80781;BME280;70341;56.408;10.874;2023-06-26T04:25:09;101391.35;;;21.55;70.96
80781;BME280;70341;56.408;10.874;2023-06-26T04:27:38;101394.81;;;21.60;70.94
80781;BME280;70341;56.408;10.874;2023-06-26T04:30:09;101394.79;;;21.67;70.68
80781;BME280;70341;56.408;10.874;2023-06-26T04:32:39;101390.39;;;21.72;70.43
80781;BME280;70341;56.408;10.874;2023-06-26T04:35:07;101385.39;;;21.78;70.36
80781;BME280;70341;56.408;10.874;2023-06-26T04:37:38;101379.33;;;21.85;70.14
80781;BME280;70341;56.408;10.874;2023-06-26T04:40:07;101371.70;;;21.90;69.95
80781;BME280;70341;56.408;10.874;2023-06-26T04:42:37;101367.10;;;21.95;69.59
80781;BME280;70341;56.408;10.874;2023-06-26T04:45:06;101369.27;;;22.02;69.21
80781;BME280;70341;56.408;10.874;2023-06-26T04:47:35;101368.05;;;22.09;69.03
80781;BME280;70341;56.408;10.874;2023-06-26T04:50:04;101360.88;;;22.13;68.69
80781;BME280;70341;56.408;10.874;2023-06-26T04:52:34;101360.33;;;22.15;68.43
80781;BME280;70341;56.408;10.874;2023-06-26T04:55:03;101361.27;;;22.19;67.87
80781;BME280;70341;56.408;10.874;2023-06-26T04:57:32;101354.54;;;22.22;67.36
80781;BME280;70341;56.408;10.874;2023-06-26T05:00:02;101353.98;;;22.24;66.74
80781;BME280;70341;56.408;10.874;2023-06-26T05:02:32;101351.56;;;22.27;66.32
80781;BME280;70341;56.408;10.874;2023-06-26T05:05:01;101354.45;;;22.30;65.86
80781;BME280;70341;56.408;10.874;2023-06-26T05:07:30;101348.42;;;22.35;66.14
80781;BME280;70341;56.408;10.874;2023-06-26T05:09:59;101340.11;;;22.39;66.19
80781;BME280;70341;56.408;10.874;2023-06-26T05:12:29;101342.30;;;22.42;66.03
80781;BME280;70341;56.408;10.874;2023-06-26T05:14:57;101344.34;;;22.45;65.56
80781;BME280;70341;56.408;10.874;2023-06-26T05:17:28;101339.16;;;22.48;64.85
80781;BME280;70341;56.408;10.874;2023-06-26T05:19:56;101329.67;;;22.49;64.41
80781;BME280;70341;56.408;10.874;2023-06-26T05:22:26;101328.00;;;22.54;64.76
80781;BME280;70341;56.408;10.874;2023-06-26T05:24:58;101324.25;;;22.56;64.81
80781;BME280;70341;56.408;10.874;2023-06-26T05:27:28;101318.45;;;22.51;64.81
80781;BME280;70341;56.408;10.874;2023-06-26T05:29:57;101316.95;;;22.50;64.81
80781;BME280;70341;56.408;10.874;2023-06-26T05:32:28;101313.55;;;22.52;64.59
80781;BME280;70341;56.408;10.874;2023-06-26T05:35:01;101312.86;;;22.58;64.23
80781;BME280;70341;56.408;10.874;2023-06-26T05:37:33;101314.75;;;22.61;63.35
80781;BME280;70341;56.408;10.874;2023-06-26T05:40:02;101313.77;;;22.62;63.17
80781;BME280;70341;56.408;10.874;2023-06-26T05:42:33;101315.48;;;22.66;62.86
80781;BME280;70341;56.408;10.874;2023-06-26T05:45:02;101308.27;;;22.74;62.20
80781;BME280;70341;56.408;10.874;2023-06-26T05:47:31;101306.08;;;22.81;61.52
80781;BME280;70341;56.408;10.874;2023-06-26T05:50:00;101311.56;;;22.87;60.47
80781;BME280;70341;56.408;10.874;2023-06-26T05:52:30;101316.02;;;22.92;59.88
80781;BME280;70341;56.408;10.874;2023-06-26T05:54:59;101308.73;;;22.98;59.32
80781;BME280;70341;56.408;10.874;2023-06-26T05:57:29;101308.23;;;23.01;59.59
80781;BME280;70341;56.408;10.874;2023-06-26T05:59:59;101300.10;;;23.05;59.46
80781;BME280;70341;56.408;10.874;2023-06-26T06:02:28;101300.16;;;23.07;58.70
80781;BME280;70341;56.408;10.874;2023-06-26T06:04:59;101300.95;;;23.10;58.45
80781;BME280;70341;56.408;10.874;2023-06-26T06:07:29;101300.48;;;23.16;58.46
80781;BME280;70341;56.408;10.874;2023-06-26T06:09:57;101293.44;;;23.24;58.08
80781;BME280;70341;56.408;10.874;2023-06-26T06:12:27;101294.25;;;23.30;58.25
80781;BME280;70341;56.408;10.874;2023-06-26T06:14:56;101295.88;;;23.38;58.53
80781;BME280;70341;56.408;10.874;2023-06-26T06:17:25;101296.03;;;23.49;57.68
80781;BME280;70341;56.408;10.874;2023-06-26T06:19:54;101293.05;;;23.54;57.40
80781;BME280;70341;56.408;10.874;2023-06-26T06:22:24;101291.17;;;23.62;57.81
80781;BME280;70341;56.408;10.874;2023-06-26T06:24:52;101289.91;;;23.70;57.74
80781;BME280;70341;56.408;10.874;2023-06-26T06:27:23;101290.66;;;23.77;57.71
80781;BME280;70341;56.408;10.874;2023-06-26T06:29:51;101286.23;;;23.85;57.56
80781;BME280;70341;56.408;10.874;2023-06-26T06:32:21;101279.66;;;23.87;57.58
80781;BME280;70341;56.408;10.874;2023-06-26T06:34:49;101282.46;;;23.93;57.78
80781;BME280;70341;56.408;10.874;2023-06-26T06:37:20;101276.23;;;23.98;57.69
80781;BME280;70341;56.408;10.874;2023-06-26T06:39:48;101269.13;;;24.02;57.82
80781;BME280;70341;56.408;10.874;2023-06-26T06:42:19;101267.53;;;24.07;57.81
80781;BME280;70341;56.408;10.874;2023-06-26T06:44:47;101259.58;;;24.17;57.83
80781;BME280;70341;56.408;10.874;2023-06-26T06:47:18;101256.31;;;24.29;57.42
80781;BME280;70341;56.408;10.874;2023-06-26T06:49:46;101258.62;;;24.38;57.05
80781;BME280;70341;56.408;10.874;2023-06-26T06:52:17;101252.14;;;24.44;56.99
80781;BME280;70341;56.408;10.874;2023-06-26T06:54:56;101247.20;;;24.46;56.72
80781;BME280;70341;56.408;10.874;2023-06-26T06:57:26;101250.65;;;24.44;56.50
80781;BME280;70341;56.408;10.874;2023-06-26T06:59:55;101245.52;;;24.45;56.71
80781;BME280;70341;56.408;10.874;2023-06-26T07:02:25;101246.55;;;24.50;56.66
80781;BME280;70341;56.408;10.874;2023-06-26T07:04:54;101242.62;;;24.57;56.52
80781;BME280;70341;56.408;10.874;2023-06-26T07:07:29;101237.63;;;24.63;56.01
80781;BME280;70341;56.408;10.874;2023-06-26T07:10:04;101241.14;;;24.71;56.09
80781;BME280;70341;56.408;10.874;2023-06-26T07:12:33;101236.02;;;24.85;56.39
80781;BME280;70341;56.408;10.874;2023-06-26T07:15:05;101237.56;;;24.90;56.18
80781;BME280;70341;56.408;10.874;2023-06-26T07:17:34;101234.25;;;24.96;56.40
80781;BME280;70341;56.408;10.874;2023-06-26T07:20:05;101231.80;;;25.05;56.60
80781;BME280;70341;56.408;10.874;2023-06-26T07:22:35;101229.47;;;25.26;56.01
80781;BME280;70341;56.408;10.874;2023-06-26T07:25:05;101221.35;;;25.40;55.34
80781;BME280;70341;56.408;10.874;2023-06-26T07:27:34;101225.85;;;25.52;54.96
80781;BME280;70341;56.408;10.874;2023-06-26T07:30:05;101228.82;;;25.61;54.81
80781;BME280;70341;56.408;10.874;2023-06-26T07:32:33;101217.88;;;25.70;54.60
80781;BME280;70341;56.408;10.874;2023-06-26T07:35:04;101214.29;;;25.78;53.91
80781;BME280;70341;56.408;10.874;2023-06-26T07:37:33;101212.58;;;25.81;53.90
80781;BME280;70341;56.408;10.874;2023-06-26T07:40:03;101210.45;;;25.81;53.64
80781;BME280;70341;56.408;10.874;2023-06-26T07:42:31;101203.48;;;25.83;53.79
80781;BME280;70341;56.408;10.874;2023-06-26T07:45:01;101198.44;;;25.91;53.89
80781;BME280;70341;56.408;10.874;2023-06-26T07:47:30;101189.67;;;26.06;53.86
80781;BME280;70341;56.408;10.874;2023-06-26T07:49:59;101184.38;;;26.21;53.06
80781;BME280;70341;56.408;10.874;2023-06-26T07:52:28;101175.94;;;26.31;53.41
80781;BME280;70341;56.408;10.874;2023-06-26T07:54:58;101173.48;;;26.39;53.20
80781;BME280;70341;56.408;10.874;2023-06-26T07:57:26;101165.33;;;26.52;52.86
80781;BME280;70341;56.408;10.874;2023-06-26T07:59:56;101165.09;;;26.54;52.78
80781;BME280;70341;56.408;10.874;2023-06-26T08:02:24;101163.05;;;26.60;52.99
80781;BME280;70341;56.408;10.874;2023-06-26T08:04:54;101161.02;;;26.55;53.19
80781;BME280;70341;56.408;10.874;2023-06-26T08:07:22;101158.11;;;26.55;53.21
80781;BME280;70341;56.408;10.874;2023-06-26T08:09:52;101155.46;;;26.61;53.09
80781;BME280;70341;56.408;10.874;2023-06-26T08:12:20;101153.04;;;26.65;52.81
80781;BME280;70341;56.408;10.874;2023-06-26T08:14:51;101143.27;;;26.70;52.92
80781;BME280;70341;56.408;10.874;2023-06-26T08:17:19;101130.02;;;26.83;53.08
80781;BME280;70341;56.408;10.874;2023-06-26T08:19:49;101120.72;;;26.90;52.18
80781;BME280;70341;56.408;10.874;2023-06-26T08:22:18;101118.08;;;26.84;52.52
80781;BME280;70341;56.408;10.874;2023-06-26T08:24:47;101105.64;;;26.81;53.17
80781;BME280;70341;56.408;10.874;2023-06-26T08:27:15;101108.41;;;26.94;52.79
80781;BME280;70341;56.408;10.874;2023-06-26T08:29:46;101105.69;;;27.14;52.76
80781;BME280;70341;56.408;10.874;2023-06-26T08:32:14;101103.71;;;27.35;51.94
80781;BME280;70341;56.408;10.874;2023-06-26T08:34:44;101094.22;;;27.52;51.52
80781;BME280;70341;56.408;10.874;2023-06-26T08:37:16;101089.46;;;27.59;51.02
80781;BME280;70341;56.408;10.874;2023-06-26T08:39:45;101085.70;;;27.71;50.84
80781;BME280;70341;56.408;10.874;2023-06-26T08:42:14;101077.13;;;27.69;50.27
80781;BME280;70341;56.408;10.874;2023-06-26T08:44:43;101071.51;;;27.63;50.47
80781;BME280;70341;56.408;10.874;2023-06-26T08:47:30;101071.09;;;27.77;50.51
80781;BME280;70341;56.408;10.874;2023-06-26T08:50:10;101065.42;;;27.97;49.69
80781;BME280;70341;56.408;10.874;2023-06-26T08:55:28;101070.66;;;28.36;48.74
80781;BME280;70341;56.408;10.874;2023-06-26T08:57:57;101061.63;;;28.49;48.63
80781;BME280;70341;56.408;10.874;2023-06-26T09:00:27;101046.71;;;28.60;47.98
80781;BME280;70341;56.408;10.874;2023-06-26T09:02:56;101051.27;;;28.89;47.47
80781;BME280;70341;56.408;10.874;2023-06-26T09:05:26;101060.77;;;29.17;46.57
80781;BME280;70341;56.408;10.874;2023-06-26T09:07:55;101052.41;;;29.42;46.23
80781;BME280;70341;56.408;10.874;2023-06-26T09:10:27;101048.95;;;29.73;45.39
80781;BME280;70341;56.408;10.874;2023-06-26T09:12:56;101060.11;;;30.17;43.91
80781;BME280;70341;56.408;10.874;2023-06-26T09:15:25;101056.60;;;30.42;42.89
80781;BME280;70341;56.408;10.874;2023-06-26T09:17:57;101051.23;;;30.76;42.29
80781;BME280;70341;56.408;10.874;2023-06-26T09:20:30;101049.30;;;31.10;41.10
80781;BME280;70341;56.408;10.874;2023-06-26T09:23:00;101058.98;;;31.32;40.64
80781;BME280;70341;56.408;10.874;2023-06-26T09:25:30;101062.30;;;31.39;40.15
80781;BME280;70341;56.408;10.874;2023-06-26T09:27:58;101068.31;;;31.41;40.12
80781;BME280;70341;56.408;10.874;2023-06-26T09:30:28;101066.21;;;31.42;40.08
80781;BME280;70341;56.408;10.874;2023-06-26T09:32:56;101075.10;;;31.35;39.77
80781;BME280;70341;56.408;10.874;2023-06-26T09:35:27;101066.58;;;31.10;40.07
80781;BME280;70341;56.408;10.874;2023-06-26T09:37:56;101072.16;;;30.68;40.94
80781;BME280;70341;56.408;10.874;2023-06-26T09:40:26;101068.30;;;30.13;41.82
80781;BME280;70341;56.408;10.874;2023-06-26T09:43:03;101072.41;;;29.49;43.34
80781;BME280;70341;56.408;10.874;2023-06-26T09:45:33;101073.27;;;29.00;44.67
80781;BME280;70341;56.408;10.874;2023-06-26T09:48:06;101077.86;;;28.42;45.72
80781;BME280;70341;56.408;10.874;2023-06-26T09:50:41;101075.36;;;27.83;47.39
80781;BME280;70341;56.408;10.874;2023-06-26T09:53:35;101074.14;;;27.29;48.74
80781;BME280;70341;56.408;10.874;2023-06-26T09:56:07;101070.92;;;26.97;49.59
80781;BME280;70341;56.408;10.874;2023-06-26T09:58:44;101075.64;;;26.70;50.26
80781;BME280;70341;56.408;10.874;2023-06-26T10:01:12;101071.73;;;26.40;51.18
80781;BME280;70341;56.408;10.874;2023-06-26T10:03:43;101068.30;;;26.14;51.92
80781;BME280;70341;56.408;10.874;2023-06-26T10:06:12;101057.91;;;25.89;52.58
80781;BME280;70341;56.408;10.874;2023-06-26T10:08:41;101046.73;;;25.64;53.44
80781;BME280;70341;56.408;10.874;2023-06-26T10:11:16;101044.04;;;25.40;54.13
80781;BME280;70341;56.408;10.874;2023-06-26T10:13:50;101042.70;;;25.22;54.58
80781;BME280;70341;56.408;10.874;2023-06-26T10:16:28;101046.09;;;25.00;55.30
80781;BME280;70341;56.408;10.874;2023-06-26T10:19:06;101046.00;;;24.81;55.87
80781;BME280;70341;56.408;10.874;2023-06-26T10:21:38;101053.93;;;24.65;56.50
80781;BME280;70341;56.408;10.874;2023-06-26T10:24:10;101053.05;;;24.51;56.78
80781;BME280;70341;56.408;10.874;2023-06-26T10:26:44;101056.80;;;24.46;56.93
80781;BME280;70341;56.408;10.874;2023-06-26T10:29:15;101055.27;;;24.41;57.26
80781;BME280;70341;56.408;10.874;2023-06-26T10:31:53;101049.16;;;24.36;57.59
80781;BME280;70341;56.408;10.874;2023-06-26T10:34:26;101033.51;;;24.31;57.58
80781;BME280;70341;56.408;10.874;2023-06-26T10:37:02;101030.19;;;24.25;57.95
80781;BME280;70341;56.408;10.874;2023-06-26T10:39:51;101022.86;;;24.18;58.20
80781;BME280;70341;56.408;10.874;2023-06-26T10:42:36;101028.38;;;24.12;58.31
80781;BME280;70341;56.408;10.874;2023-06-26T10:45:15;101031.55;;;24.09;58.41
80781;BME280;70341;56.408;10.874;2023-06-26T10:47:48;101031.79;;;24.02;58.69
80781;BME280;70341;56.408;10.874;2023-06-26T10:50:29;101031.23;;;23.95;58.69
80781;BME280;70341;56.408;10.874;2023-06-26T10:55:49;101031.58;;;23.82;59.22
80781;BME280;70341;56.408;10.874;2023-06-26T10:58:29;101019.24;;;23.77;59.35
80781;BME280;70341;56.408;10.874;2023-06-26T11:03:45;100993.60;;;23.73;59.59
80781;BME280;70341;56.408;10.874;2023-06-26T11:06:22;100994.71;;;23.75;59.61
80781;BME280;70341;56.408;10.874;2023-06-26T11:09:00;101022.62;;;23.71;59.82
80781;BME280;70341;56.408;10.874;2023-06-26T11:14:23;101100.73;;;23.35;56.57
80781;BME280;70341;56.408;10.874;2023-06-26T11:16:52;101094.67;;;23.12;56.90
80781;BME280;70341;56.408;10.874;2023-06-26T11:19:27;101099.65;;;22.90;57.07
80781;BME280;70341;56.408;10.874;2023-06-26T11:22:03;101096.98;;;22.66;57.37
80781;BME280;70341;56.408;10.874;2023-06-26T11:24:33;101096.08;;;22.36;59.84
80781;BME280;70341;56.408;10.874;2023-06-26T11:27:02;101106.27;;;22.03;61.21
80781;BME280;70341;56.408;10.874;2023-06-26T11:29:33;101092.73;;;21.73;62.30
80781;BME280;70341;56.408;10.874;2023-06-26T11:32:04;101091.42;;;21.44;63.47
80781;BME280;70341;56.408;10.874;2023-06-26T11:34:34;101102.48;;;21.21;64.28
80781;BME280;70341;56.408;10.874;2023-06-26T11:37:03;101129.27;;;21.00;65.41
80781;BME280;70341;56.408;10.874;2023-06-26T11:39:32;101137.09;;;20.83;66.43
80781;BME280;70341;56.408;10.874;2023-06-26T11:42:00;101135.80;;;20.64;67.23
80781;BME280;70341;56.408;10.874;2023-06-26T11:44:31;101144.86;;;20.50;67.70
80781;BME280;70341;56.408;10.874;2023-06-26T11:47:00;101152.58;;;20.33;68.41
80781;BME280;70341;56.408;10.874;2023-06-26T11:49:29;101158.13;;;20.19;68.71
80781;BME280;70341;56.408;10.874;2023-06-26T11:51:58;101142.96;;;20.09;69.03
80781;BME280;70341;56.408;10.874;2023-06-26T11:54:28;101136.70;;;20.03;69.13
80781;BME280;70341;56.408;10.874;2023-06-26T11:56:58;101121.21;;;20.01;69.37
80781;BME280;70341;56.408;10.874;2023-06-26T11:59:42;101103.11;;;19.99;69.88
80781;BME280;70341;56.408;10.874;2023-06-26T12:02:14;101102.36;;;20.02;69.95
80781;BME280;70341;56.408;10.874;2023-06-26T12:04:44;101096.20;;;20.07;70.27
80781;BME280;70341;56.408;10.874;2023-06-26T12:07:15;101088.62;;;20.12;70.33
80781;BME280;70341;56.408;10.874;2023-06-26T12:09:46;101086.83;;;20.12;70.38
80781;BME280;70341;56.408;10.874;2023-06-26T12:12:18;101102.69;;;20.10;70.16
80781;BME280;70341;56.408;10.874;2023-06-26T12:14:46;101114.04;;;20.15;70.19
80781;BME280;70341;56.408;10.874;2023-06-26T12:17:16;101115.84;;;20.20;69.85
80781;BME280;70341;56.408;10.874;2023-06-26T12:19:46;101123.08;;;20.29;69.65
80781;BME280;70341;56.408;10.874;2023-06-26T12:22:18;101116.95;;;20.44;69.33
80781;BME280;70341;56.408;10.874;2023-06-26T12:24:47;101104.46;;;20.61;69.23
80781;BME280;70341;56.408;10.874;2023-06-26T12:27:18;101106.01;;;20.73;69.00
80781;BME280;70341;56.408;10.874;2023-06-26T12:29:54;101107.29;;;20.85;68.99
80781;BME280;70341;56.408;10.874;2023-06-26T12:32:25;101121.62;;;20.91;68.57
80781;BME280;70341;56.408;10.874;2023-06-26T12:34:56;101127.23;;;20.98;68.93
80781;BME280;70341;56.408;10.874;2023-06-26T12:37:26;101132.84;;;20.96;68.51
80781;BME280;70341;56.408;10.874;2023-06-26T12:39:57;101125.35;;;20.85;68.73
80781;BME280;70341;56.408;10.874;2023-06-26T12:42:28;101125.23;;;20.77;68.82
80781;BME280;70341;56.408;10.874;2023-06-26T12:45:13;101122.31;;;20.71;69.19
80781;BME280;70341;56.408;10.874;2023-06-26T12:48:12;101113.91;;;20.63;69.38
80781;BME280;70341;56.408;10.874;2023-06-26T12:50:45;101105.33;;;20.61;69.49
80781;BME280;70341;56.408;10.874;2023-06-26T12:53:13;101101.08;;;20.65;69.61
80781;BME280;70341;56.408;10.874;2023-06-26T12:55:44;101098.71;;;20.70;69.53
80781;BME280;70341;56.408;10.874;2023-06-26T12:58:12;101080.51;;;20.69;69.47
80781;BME280;70341;56.408;10.874;2023-06-26T13:00:43;101049.80;;;20.62;69.85
80781;BME280;70341;56.408;10.874;2023-06-26T13:03:11;101036.13;;;20.57;70.01
80781;BME280;70341;56.408;10.874;2023-06-26T13:05:42;101022.41;;;20.55;69.73
80781;BME280;70341;56.408;10.874;2023-06-26T13:08:10;100997.70;;;20.59;69.66
80781;BME280;70341;56.408;10.874;2023-06-26T13:10:41;100966.91;;;20.65;69.59
80781;BME280;70341;56.408;10.874;2023-06-26T13:13:11;100981.10;;;20.73;69.53